Time;durP1;ratioP1;P1;durP2;ratioP2;P2;SDS_P1;SDS_P2;PMS_P1;PMS_P2;Temp;Humidity;BMP_temperature;BMP_pressure;BME280_temperature;BME280_humidity;BME280_pressure;Samples;Min_cycle;Max_cycle;Signal;HPM_P1;HPM_P2
2021/10/18 00:01:27;;;;;;;12.00;9.07;;;;;;;7.94;77.62;101105.78;4858136;29;20516;-75
2021/10/18 00:03:52;;;;;;;10.13;9.07;;;;;;;7.92;77.55;101099.78;4860194;29;20450;-75
2021/10/18 00:06:18;;;;;;;14.60;9.83;;;;;;;7.93;78.05;101099.56;4859982;29;20418;-75
2021/10/18 00:08:43;;;;;;;11.03;9.17;;;;;;;7.96;77.73;101098.31;4860703;29;20427;-75
2021/10/18 00:11:08;;;;;;;10.77;8.87;;;;;;;7.97;77.16;101105.38;4855183;29;20782;-75
2021/10/18 00:13:33;;;;;;;12.37;9.33;;;;;;;7.98;77.45;101105.16;4860284;29;20445;-75
2021/10/18 00:15:59;;;;;;;12.70;10.27;;;;;;;7.96;77.38;101111.81;4859629;29;20990;-75
2021/10/18 00:18:25;;;;;;;14.38;10.65;;;;;;;7.94;77.12;101105.78;4843605;29;20501;-75
2021/10/18 00:20:50;;;;;;;14.27;10.23;;;;;;;7.91;77.57;101111.59;4859694;29;20418;-75
2021/10/18 00:23:15;;;;;;;12.43;9.50;;;;;;;7.87;77.64;101113.88;4860081;29;20448;-75
2021/10/18 00:25:41;;;;;;;14.70;9.80;;;;;;;7.83;77.40;101113.50;4860125;29;20422;-75
2021/10/18 00:28:06;;;;;;;15.03;10.80;;;;;;;7.84;77.66;101119.72;4841901;29;20425;-75
2021/10/18 00:30:31;;;;;;;15.33;10.83;;;;;;;7.84;77.43;101117.00;4853490;29;20898;-75
2021/10/18 00:32:57;;;;;;;14.80;11.20;;;;;;;7.81;77.47;101114.72;4859977;29;20861;-75
2021/10/18 00:35:22;;;;;;;14.53;11.30;;;;;;;7.80;76.91;101115.78;4859941;29;20420;-75
2021/10/18 00:37:48;;;;;;;17.87;11.83;;;;;;;7.79;77.14;101109.56;4854754;29;20463;-75
2021/10/18 00:40:13;;;;;;;15.07;11.93;;;;;;;7.78;77.52;101105.19;4859845;29;20454;-75
2021/10/18 00:42:39;;;;;;;13.48;10.88;;;;;;;7.78;77.07;101110.59;4859686;29;20899;-75
2021/10/18 00:45:05;;;;;;;13.30;10.13;;;;;;;7.74;77.58;101106.66;4858620;29;20442;-75
2021/10/18 00:47:31;;;;;;;13.37;10.37;;;;;;;7.72;77.93;101100.66;4859336;29;20407;-75
2021/10/18 00:49:56;;;;;;;11.73;10.47;;;;;;;7.70;77.74;101108.13;4859264;29;20427;-75
2021/10/18 00:52:22;;;;;;;12.73;9.68;;;;;;;7.67;78.19;101096.94;4859525;29;20486;-75
2021/10/18 00:54:49;;;;;;;12.27;9.77;;;;;;;7.65;78.00;101097.13;4842822;29;20458;-75
2021/10/18 00:57:15;;;;;;;13.68;11.07;;;;;;;7.63;77.86;101099.22;4857849;29;20433;-75
2021/10/18 00:59:41;;;;;;;13.10;10.40;;;;;;;7.61;77.96;101103.16;4859319;29;20430;-75
2021/10/18 01:02:07;;;;;;;12.38;10.23;;;;;;;7.58;77.67;101098.16;4859437;29;20437;-75
2021/10/18 01:04:32;;;;;;;14.30;12.07;;;;;;;7.55;77.12;101106.69;4859531;29;20418;-75
2021/10/18 01:06:58;;;;;;;15.63;11.50;;;;;;;7.51;77.66;101105.47;4858485;29;20425;-75
2021/10/18 01:09:23;;;;;;;15.20;11.13;;;;;;;7.48;76.99;101104.00;4859335;29;20458;-75
2021/10/18 01:11:48;;;;;;;15.30;11.40;;;;;;;7.44;77.44;101102.78;4856586;29;20933;-75
2021/10/18 01:14:14;;;;;;;14.93;10.93;;;;;;;7.44;77.58;101107.34;4856424;29;20446;-75
2021/10/18 01:16:39;;;;;;;13.00;10.73;;;;;;;7.42;77.70;101106.69;4856358;29;20438;-75
2021/10/18 01:19:22;;;;;;;17.80;11.90;;;;;;;7.42;77.36;101112.09;4859002;29;20426;-75
2021/10/18 01:21:48;;;;;;;14.52;11.20;;;;;;;7.40;77.27;101106.09;4842686;29;20819;-75
2021/10/18 01:24:14;;;;;;;16.17;11.50;;;;;;;7.39;77.33;101107.13;4859549;29;20414;-75
2021/10/18 01:26:39;;;;;;;14.27;11.85;;;;;;;7.37;77.28;101104.66;4842072;29;20410;-75
2021/10/18 01:29:05;;;;;;;14.70;12.03;;;;;;;7.36;77.69;101102.97;4858694;29;20426;-75
2021/10/18 01:31:30;;;;;;;14.27;12.03;;;;;;;7.38;77.63;101100.06;4843691;29;20429;-75
2021/10/18 01:33:56;;;;;;;15.73;11.57;;;;;;;7.38;77.86;101105.44;4856595;29;20479;-75
2021/10/18 01:36:21;;;;;;;15.20;12.40;;;;;;;7.38;77.65;101100.88;4858931;29;20414;-75
2021/10/18 01:38:47;;;;;;;15.87;12.47;;;;;;;7.38;77.85;101102.75;4858973;29;20880;-75
2021/10/18 01:41:12;;;;;;;14.80;12.47;;;;;;;7.37;77.16;101107.34;4859042;29;20414;-75
2021/10/18 01:43:38;;;;;;;20.40;14.23;;;;;;;7.37;75.81;101101.13;4858620;29;20509;-75
2021/10/18 01:46:03;;;;;;;17.27;12.77;;;;;;;7.33;76.30;101098.00;4841291;29;20511;-75
2021/10/18 01:48:29;;;;;;;18.17;13.27;;;;;;;7.31;76.58;101100.88;4858601;29;20414;-75
2021/10/18 01:50:54;;;;;;;15.27;12.45;;;;;;;7.29;76.76;101096.75;4858933;29;20484;-75
2021/10/18 01:53:20;;;;;;;17.00;12.37;;;;;;;7.27;77.13;101096.97;4856048;29;20438;-75
2021/10/18 01:55:45;;;;;;;16.83;12.53;;;;;;;7.26;77.00;101098.00;4857972;29;20434;-75
2021/10/18 01:58:11;;;;;;;14.53;12.33;;;;;;;7.26;76.86;101086.38;4858843;29;20429;-75
2021/10/18 02:00:38;;;;;;;15.07;11.95;;;;;;;7.24;77.39;101099.25;4854762;29;20917;-75
2021/10/18 02:03:04;;;;;;;15.60;12.52;;;;;;;7.24;77.07;101094.66;4858854;29;20422;-75
2021/10/18 02:05:29;;;;;;;16.60;13.55;;;;;;;7.22;77.46;101096.75;4838884;29;20423;-75
2021/10/18 02:07:54;;;;;;;22.83;15.45;;;;;;;7.22;76.67;101094.06;4858830;29;20812;-75
2021/10/18 02:10:19;;;;;;;27.20;16.33;;;;;;;7.19;76.48;101097.16;4858535;29;20413;-75
2021/10/18 02:12:45;;;;;;;39.97;16.07;;;;;;;7.15;76.37;101089.69;4855708;29;20424;-75
2021/10/18 02:15:11;;;;;;;30.57;13.47;;;;;;;7.08;76.08;101091.59;4856527;29;20468;-75
2021/10/18 02:17:37;;;;;;;18.38;13.07;;;;;;;7.02;77.19;101100.47;4861023;29;20414;-75
2021/10/18 02:20:04;;;;;;;13.20;10.88;;;;;;;7.01;77.09;101093.44;4862785;29;20417;-75
2021/10/18 02:22:29;;;;;;;16.40;10.55;;;;;;;6.99;77.02;101093.63;4862339;29;20418;-75
2021/10/18 02:24:56;;;;;;;14.67;11.37;;;;;;;6.97;76.94;101102.97;4862202;29;20414;-75
2021/10/18 02:27:21;;;;;;;24.05;11.75;;;;;;;6.92;77.03;101105.44;4854613;29;20416;-75
2021/10/18 02:29:47;;;;;;;14.15;10.65;;;;;;;6.85;77.64;101101.91;4844960;29;20427;-75
2021/10/18 02:32:12;;;;;;;14.15;11.15;;;;;;;6.86;77.57;101106.25;4861522;29;20438;-75
2021/10/18 02:34:37;;;;;;;16.70;11.43;;;;;;;6.87;77.78;101097.97;4862293;29;20490;-75
2021/10/18 02:37:03;;;;;;;16.70;12.03;;;;;;;6.92;78.20;101105.44;4854082;29;20490;-75
2021/10/18 02:39:28;;;;;;;15.63;11.47;;;;;;;6.93;77.89;101089.06;4862139;29;20450;-74
2021/10/18 02:41:53;;;;;;;22.13;12.50;;;;;;;6.93;77.75;101091.75;4862188;29;20422;-75
2021/10/18 02:44:18;;;;;;;19.90;13.50;;;;;;;6.94;78.03;101087.22;4845311;29;20422;-75
2021/10/18 02:46:44;;;;;;;20.00;13.77;;;;;;;6.95;78.29;101083.50;4858611;29;20438;-75
2021/10/18 02:49:09;;;;;;;24.25;13.13;;;;;;;6.96;77.54;101082.44;4861774;29;20462;-75
2021/10/18 02:51:34;;;;;;;17.23;11.67;;;;;;;6.96;78.28;101094.03;4861660;29;20418;-75
2021/10/18 02:54:02;;;;;;;18.50;11.73;;;;;;;6.99;78.15;101093.63;4861746;29;20433;-75
2021/10/18 02:56:28;;;;;;;16.50;11.23;;;;;;;6.95;77.59;101095.06;4861119;29;20427;-75
2021/10/18 02:58:55;;;;;;;16.08;10.70;;;;;;;6.93;77.28;101099.00;4860318;29;21330;-75
2021/10/18 03:01:20;;;;;;;16.10;10.60;;;;;;;6.88;77.42;101107.72;4861358;29;20416;-75
2021/10/18 03:03:45;;;;;;;15.43;10.60;;;;;;;6.87;77.03;101107.91;4855091;29;20453;-75
2021/10/18 03:06:10;;;;;;;15.07;10.73;;;;;;;6.84;77.18;101106.47;4842640;29;20935;-75
2021/10/18 03:08:36;;;;;;;18.97;10.60;;;;;;;6.83;77.37;101107.50;4859804;29;20470;-75
2021/10/18 03:11:01;;;;;;;20.13;10.90;;;;;;;6.82;76.89;101105.03;4845074;29;20767;-76
2021/10/18 03:13:28;;;;;;;19.63;12.70;;;;;;;6.79;76.84;101107.06;4856409;29;20490;-74
2021/10/18 03:15:53;;;;;;;18.55;11.45;;;;;;;6.78;77.32;101108.09;4861205;29;20489;-74
2021/10/18 03:18:18;;;;;;;20.67;13.23;;;;;;;6.79;77.43;101104.38;4844973;29;20505;-76
2021/10/18 03:20:44;;;;;;;20.67;12.97;;;;;;;6.79;77.76;101112.47;4861492;29;21037;-74
2021/10/18 03:23:09;;;;;;;19.07;12.90;;;;;;;6.80;77.51;101116.00;4860675;29;20414;-74
2021/10/18 03:25:34;;;;;;;19.60;13.27;;;;;;;6.79;77.57;101117.84;4842626;29;20414;-74
2021/10/18 03:28:04;;;;;;;19.17;12.77;;;;;;;6.79;77.62;101128.63;4859417;29;20422;-74
2021/10/18 03:30:29;;;;;;;19.98;13.18;;;;;;;6.85;77.84;101142.34;4860473;29;20997;-74
2021/10/18 03:32:55;;;;;;;17.13;12.70;;;;;;;6.86;77.92;101127.81;4861267;29;20558;-73
2021/10/18 03:35:21;;;;;;;21.98;13.10;;;;;;;6.88;78.28;101129.28;4860757;29;20414;-74
2021/10/18 03:37:46;;;;;;;18.90;13.37;;;;;;;6.89;78.32;101128.22;4860960;29;20441;-74
2021/10/18 03:40:12;;;;;;;18.17;12.30;;;;;;;6.90;78.34;101134.44;4861190;29;20418;-74
2021/10/18 03:42:38;;;;;;;17.67;11.65;;;;;;;6.86;78.45;101134.03;4852264;29;20449;-74
2021/10/18 03:45:06;;;;;;;21.57;13.67;;;;;;;6.84;78.42;101132.59;4856969;29;20442;-74
2021/10/18 03:47:31;;;;;;;24.10;16.05;;;;;;;6.82;78.13;101143.53;4859078;29;20924;-73
2021/10/18 03:49:56;;;;;;;28.10;17.27;;;;;;;6.83;78.31;101136.31;4860678;29;20410;-74
2021/10/18 03:52:22;;;;;;;25.10;16.30;;;;;;;6.81;78.46;101135.69;4860613;29;20426;-76
2021/10/18 03:54:48;;;;;;;22.75;15.20;;;;;;;6.83;78.17;101142.53;4860539;29;20418;-74
2021/10/18 03:57:13;;;;;;;20.63;14.98;;;;;;;6.83;78.53;101157.84;4860706;29;20418;-74
2021/10/18 03:59:38;;;;;;;16.27;13.43;;;;;;;6.79;78.11;101158.25;4859630;29;20958;-74
2021/10/18 04:02:06;;;;;;;19.43;13.77;;;;;;;6.79;78.75;101162.81;4859487;29;20511;-76
2021/10/18 04:04:31;;;;;;;13.77;11.13;;;;;;;6.78;78.55;101169.25;4859872;29;20478;-76
2021/10/18 04:06:56;;;;;;;15.87;12.67;;;;;;;6.77;77.98;101164.88;4859589;29;20426;-74
2021/10/18 04:09:22;;;;;;;13.73;11.57;;;;;;;6.79;78.10;101160.13;4860646;29;20429;-74
2021/10/18 04:11:47;;;;;;;12.45;10.70;;;;;;;6.72;77.73;101168.19;4860424;29;20894;-75
2021/10/18 04:14:12;;;;;;;11.10;9.77;;;;;;;6.66;77.54;101169.00;4843552;29;20636;-75
2021/10/18 04:16:38;;;;;;;10.63;9.53;;;;;;;6.63;77.94;101173.94;4844130;29;20437;-76
2021/10/18 04:19:04;;;;;;;10.75;9.65;;;;;;;6.64;77.97;101176.47;4860399;29;20910;-76
2021/10/18 04:21:29;;;;;;;10.45;9.27;;;;;;;6.59;77.99;101181.59;4856426;29;20410;-75
2021/10/18 04:23:55;;;;;;;14.97;11.43;;;;;;;6.60;77.72;101179.75;4858182;29;20941;-76
2021/10/18 04:26:20;;;;;;;10.77;9.45;;;;;;;6.61;77.33;101181.41;4855285;29;20467;-76
2021/10/18 04:28:46;;;;;;;14.87;11.00;;;;;;;6.60;77.78;101180.56;4857419;29;20429;-76
2021/10/18 04:31:11;;;;;;;16.30;12.47;;;;;;;6.61;77.40;101190.31;4843077;29;20418;-76
2021/10/18 04:33:37;;;;;;;16.47;12.33;;;;;;;6.59;77.21;101194.22;4859203;29;20471;-76
2021/10/18 04:36:03;;;;;;;17.27;12.20;;;;;;;6.57;77.34;101185.53;4848673;29;20445;-76
2021/10/18 04:38:28;;;;;;;15.00;11.63;;;;;;;6.58;76.81;101187.22;4855828;29;20912;-76
2021/10/18 04:40:54;;;;;;;14.48;11.18;;;;;;;6.56;76.22;101194.63;4859771;29;20430;-76
2021/10/18 04:43:19;;;;;;;12.88;9.95;;;;;;;6.52;75.84;101196.91;4846154;29;20418;-76
2021/10/18 04:45:44;;;;;;;10.63;9.43;;;;;;;6.49;75.69;101196.47;4854576;29;20438;-75
2021/10/18 04:48:10;;;;;;;11.17;9.20;;;;;;;6.44;76.28;101201.63;4857472;29;20486;-74
2021/10/18 04:50:35;;;;;;;10.43;8.50;;;;;;;6.40;75.51;101200.34;4856841;29;20539;-74
2021/10/18 04:53:00;;;;;;;14.73;10.27;;;;;;;6.35;75.97;101202.84;4862404;29;20422;-74
2021/10/18 04:55:26;;;;;;;14.03;10.33;;;;;;;6.33;76.42;101203.03;4859402;29;20782;-74
2021/10/18 04:57:56;;;;;;;10.50;8.53;;;;;;;6.29;75.64;101200.94;4853968;29;20973;-74
2021/10/18 05:00:23;;;;;;;11.27;9.60;;;;;;;6.25;76.19;101214.81;4860685;29;20486;-74
2021/10/18 05:02:48;;;;;;;11.50;10.30;;;;;;;6.19;76.34;101215.56;4856858;29;20407;-74
2021/10/18 05:05:14;;;;;;;10.80;9.73;;;;;;;6.21;75.98;101221.59;4856147;29;20497;-74
2021/10/18 05:07:39;;;;;;;11.20;9.80;;;;;;;6.24;76.68;101225.75;4851360;29;20418;-74
2021/10/18 05:10:10;;;;;;;25.20;16.47;;;;;;;6.24;75.77;101226.59;4858147;29;20908;-74
2021/10/18 05:12:36;;;;;;;42.60;24.65;;;;;;;6.26;75.71;101229.91;4859010;29;20438;-74
2021/10/18 05:15:01;;;;;;;18.52;13.25;;;;;;;6.27;76.38;101228.03;4852832;29;20423;-74
2021/10/18 05:17:26;;;;;;;11.40;8.98;;;;;;;6.29;76.38;101223.28;4854469;29;20439;-73
2021/10/18 05:19:52;;;;;;;10.50;8.93;;;;;;;6.32;76.22;101222.91;4837218;29;20429;-74
2021/10/18 05:22:17;;;;;;;10.87;8.80;;;;;;;6.33;75.61;101224.56;4861492;29;20906;-74
2021/10/18 05:24:42;;;;;;;11.20;8.25;;;;;;;6.35;75.62;101235.13;4859296;29;20902;-74
2021/10/18 05:27:08;;;;;;;9.93;7.90;;;;;;;6.33;75.09;101226.41;4853289;29;20426;-74
2021/10/18 05:29:34;;;;;;;10.07;7.90;;;;;;;6.31;74.59;101231.16;4855558;29;20478;-74
2021/10/18 05:31:59;;;;;;;8.20;7.40;;;;;;;6.28;74.91;101231.56;4851764;29;20424;-74
2021/10/18 05:34:24;;;;;;;13.30;8.82;;;;;;;6.28;75.46;101239.66;4855785;29;20422;-73
2021/10/18 05:36:49;;;;;;;8.00;7.30;;;;;;;6.28;75.43;101236.97;4858222;29;20491;-74
2021/10/18 05:39:15;;;;;;;7.13;6.43;;;;;;;6.26;74.77;101234.44;4856887;29;20818;-74
2021/10/18 05:41:40;;;;;;;8.67;7.87;;;;;;;6.27;75.10;101233.44;4852975;29;20506;-74
2021/10/18 05:44:05;;;;;;;9.00;8.10;;;;;;;6.29;75.60;101238.63;4855699;29;20810;-74
2021/10/18 05:46:31;;;;;;;10.18;8.23;;;;;;;6.30;75.46;101240.28;4853676;29;20445;-74
2021/10/18 05:48:56;;;;;;;11.43;9.10;;;;;;;6.33;75.31;101250.63;4858801;29;20644;-74
2021/10/18 05:51:21;;;;;;;10.57;8.27;;;;;;;6.37;75.04;101241.97;4840592;29;20521;-74
2021/10/18 05:53:47;;;;;;;14.73;9.13;;;;;;;6.38;75.08;101240.13;4856091;29;20457;-74
2021/10/18 05:56:12;;;;;;;9.60;8.47;;;;;;;6.41;75.13;101245.09;4843563;29;20515;-75
2021/10/18 05:58:37;;;;;;;10.93;8.93;;;;;;;6.43;75.15;101245.72;4854065;29;20419;-74
2021/10/18 06:01:03;;;;;;;10.60;7.97;;;;;;;6.45;75.22;101247.22;4854719;29;20902;-76
2021/10/18 06:03:31;;;;;;;13.83;8.10;;;;;;;6.47;75.48;101255.91;4858449;29;20486;-76
2021/10/18 06:05:57;;;;;;;15.03;8.07;;;;;;;6.49;75.17;101258.41;4851671;29;20443;-76
2021/10/18 06:08:22;;;;;;;9.63;7.37;;;;;;;6.50;75.51;101260.06;4856336;29;20542;-74
2021/10/18 06:10:47;;;;;;;7.75;7.05;;;;;;;6.53;75.73;101270.44;4842231;29;20403;-75
2021/10/18 06:13:13;;;;;;;8.07;6.90;;;;;;;6.57;75.89;101260.94;4858342;29;20422;-77
2021/10/18 06:15:38;;;;;;;8.37;7.27;;;;;;;6.59;76.16;101272.34;4841483;29;20418;-74
2021/10/18 06:18:22;;;;;;;24.03;8.10;;;;;;;6.59;76.21;101266.94;4858610;29;20450;-74
2021/10/18 06:20:50;;;;;;;11.77;7.63;;;;;;;6.62;76.61;101275.47;4858631;29;20824;-77
2021/10/18 06:23:16;;;;;;;17.95;8.43;;;;;;;6.65;76.80;101274.25;4854402;29;20513;-76
2021/10/18 06:25:42;;;;;;;17.03;7.23;;;;;;;6.67;76.60;101277.56;4857636;29;20480;-76
2021/10/18 06:28:09;;;;;;;27.33;7.87;;;;;;;6.67;77.39;101281.09;4842116;29;20410;-74
2021/10/18 06:30:35;;;;;;;7.82;7.03;;;;;;;6.68;76.90;101282.78;4858469;29;20425;-76
2021/10/18 06:33:02;;;;;;;10.65;7.80;;;;;;;6.73;77.61;101284.84;4854195;29;20966;-75
2021/10/18 06:35:27;;;;;;;10.70;7.53;;;;;;;6.75;77.49;101280.91;4849176;29;20928;-74
2021/10/18 06:37:53;;;;;;;10.77;7.90;;;;;;;6.79;77.36;101279.50;4856115;29;20509;-75
2021/10/18 06:40:18;;;;;;;9.65;7.90;;;;;;;6.82;77.84;101282.84;4856344;29;20820;-74
2021/10/18 06:42:49;;;;;;;9.90;7.43;;;;;;;6.88;78.09;101277.47;4841678;29;20458;-75
2021/10/18 06:45:15;;;;;;;7.97;7.18;;;;;;;6.93;77.72;101282.25;4838425;29;20425;-74
2021/10/18 06:47:40;;;;;;;7.78;7.18;;;;;;;6.98;78.05;101279.78;4858133;29;20420;-74
2021/10/18 06:50:07;;;;;;;8.18;7.38;;;;;;;7.02;78.01;101284.56;4858181;29;20450;-74
2021/10/18 06:52:35;;;;;;;8.03;7.27;;;;;;;7.08;77.55;101283.75;4856423;29;20433;-74
2021/10/18 06:55:04;;;;;;;9.07;7.50;;;;;;;7.12;78.05;101295.78;4854974;29;20748;-74
2021/10/18 06:57:29;;;;;;;9.95;7.55;;;;;;;7.17;77.92;101297.88;4858166;29;20418;-74
2021/10/18 06:59:55;;;;;;;11.68;7.22;;;;;;;7.21;77.79;101302.66;4859004;29;20894;-74
2021/10/18 07:02:21;;;;;;;8.38;7.05;;;;;;;7.23;77.67;101314.09;4861666;29;20421;-74
2021/10/18 07:04:46;;;;;;;10.82;7.88;;;;;;;7.26;78.36;101305.59;4861293;29;20480;-74
2021/10/18 07:07:12;;;;;;;9.23;7.73;;;;;;;7.30;78.38;101303.31;4859173;29;20903;-74
2021/10/18 07:09:37;;;;;;;18.48;9.00;;;;;;;7.37;78.45;101308.75;4844467;29;20449;-74
2021/10/18 07:12:03;;;;;;;23.00;10.40;;;;;;;7.41;78.63;101318.91;4844822;29;20429;-74
2021/10/18 07:14:28;;;;;;;16.47;9.77;;;;;;;7.44;78.86;101313.13;4860990;29;20415;-74
2021/10/18 07:16:53;;;;;;;23.27;10.07;;;;;;;7.48;78.78;101311.66;4852932;29;20418;-74
2021/10/18 07:19:19;;;;;;;27.87;11.43;;;;;;;7.53;78.83;101316.44;4842952;29;20412;-74
2021/10/18 07:21:46;;;;;;;16.40;10.43;;;;;;;7.59;78.69;101318.31;4857521;29;20433;-74
2021/10/18 07:24:13;;;;;;;20.17;11.13;;;;;;;7.61;78.36;101311.69;4860279;29;20429;-74
2021/10/18 07:26:38;;;;;;;20.00;11.48;;;;;;;7.61;79.20;101317.09;4860390;29;20831;-74
2021/10/18 07:29:03;;;;;;;32.63;11.60;;;;;;;7.67;78.56;101310.84;4861336;29;20513;-75
2021/10/18 07:31:29;;;;;;;29.77;11.53;;;;;;;7.72;79.07;101310.25;4861162;29;20430;-74
2021/10/18 07:34:01;;;;;;;36.97;12.27;;;;;;;7.74;79.57;101317.09;4844173;29;20446;-74
2021/10/18 07:36:27;;;;;;;34.63;13.38;;;;;;;7.75;79.92;101326.88;4855045;29;20435;-74
2021/10/18 07:38:53;;;;;;;66.75;14.00;;;;;;;7.78;80.39;101326.44;4859811;29;20450;-74
2021/10/18 07:41:19;;;;;;;31.00;12.85;;;;;;;7.80;80.85;101321.66;4844203;29;20425;-74
2021/10/18 07:43:45;;;;;;;40.67;11.10;;;;;;;7.83;80.23;101326.69;4859659;29;20422;-75
2021/10/18 07:46:11;;;;;;;35.57;11.10;;;;;;;7.89;80.07;101330.41;4859279;29;20434;-74
2021/10/18 07:48:36;;;;;;;81.40;15.57;;;;;;;7.92;79.89;101323.78;4842898;29;20773;-75
2021/10/18 07:51:02;;;;;;;26.17;14.00;;;;;;;7.96;80.44;101328.56;4860597;29;20425;-74
2021/10/18 07:53:28;;;;;;;78.53;14.07;;;;;;;8.00;80.04;101329.78;4859889;29;20445;-75
2021/10/18 07:55:53;;;;;;;70.73;13.67;;;;;;;7.96;80.43;101328.56;4859568;29;20414;-75
2021/10/18 07:58:19;;;;;;;46.23;14.67;;;;;;;8.00;80.62;101335.19;4860603;29;20419;-74
2021/10/18 08:00:45;;;;;;;38.63;17.33;;;;;;;8.00;81.14;101339.78;4859223;29;20432;-75
2021/10/18 08:03:11;;;;;;;41.40;16.53;;;;;;;8.08;81.11;101340.38;4844101;29;20506;-75
2021/10/18 08:05:36;;;;;;;39.93;18.63;;;;;;;8.19;80.82;101347.03;4860625;29;20774;-75
2021/10/18 08:08:03;;;;;;;27.93;15.37;;;;;;;8.24;80.31;101353.47;4844626;29;20790;-75
2021/10/18 08:10:28;;;;;;;20.88;11.75;;;;;;;8.33;80.40;101359.56;4861002;29;20893;-75
2021/10/18 08:12:59;;;;;;;21.87;11.90;;;;;;;8.36;80.05;101361.00;4860606;29;20426;-75
2021/10/18 08:15:26;;;;;;;22.38;11.80;;;;;;;8.39;79.35;101350.59;4853110;29;20788;-75
2021/10/18 08:17:52;;;;;;;15.82;9.82;;;;;;;8.41;79.56;101336.88;4860474;29;20425;-75
2021/10/18 08:20:19;;;;;;;21.60;10.95;;;;;;;8.43;79.06;101349.13;4860740;29;20778;-74
2021/10/18 08:22:44;;;;;;;16.50;10.77;;;;;;;8.44;79.14;101341.84;4860509;29;20434;-75
2021/10/18 08:25:10;;;;;;;18.20;10.77;;;;;;;8.47;79.82;101349.53;4860483;29;20898;-75
2021/10/18 08:27:35;;;;;;;14.45;10.55;;;;;;;8.52;79.12;101338.97;4843693;29;20520;-75
2021/10/18 08:30:00;;;;;;;16.38;10.82;;;;;;;8.56;78.59;101342.91;4857437;29;20429;-75
2021/10/18 08:32:26;;;;;;;15.87;10.30;;;;;;;8.57;78.72;101349.94;4859951;29;20782;-75
2021/10/18 08:34:51;;;;;;;20.80;13.67;;;;;;;8.61;77.95;101349.31;4843334;29;20433;-74
2021/10/18 08:37:17;;;;;;;14.73;10.50;;;;;;;8.64;78.17;101351.59;4860328;29;20481;-75
2021/10/18 08:42:25;;;;;;;15.30;11.02;;;;;;;8.73;78.07;101354.91;4860230;29;20832;-75
2021/10/18 08:44:50;;;;;;;15.52;10.70;;;;;;;8.75;77.84;101355.53;4859010;29;20842;-75
2021/10/18 08:47:16;;;;;;;16.67;11.23;;;;;;;8.80;77.87;101345.75;4843377;29;20426;-75
2021/10/18 08:49:41;;;;;;;17.37;10.97;;;;;;;8.84;77.90;101344.28;4859944;29;20775;-75
2021/10/18 08:52:07;;;;;;;14.47;10.73;;;;;;;8.87;77.77;101353.84;4843249;29;20449;-75
2021/10/18 08:54:33;;;;;;;18.87;11.73;;;;;;;8.88;77.71;101354.69;4859830;29;20421;-75
2021/10/18 08:56:58;;;;;;;15.98;11.43;;;;;;;8.86;77.80;101349.47;4843163;29;20448;-75
2021/10/18 08:59:25;;;;;;;14.90;10.47;;;;;;;8.89;77.58;101357.19;4841436;29;20462;-75
2021/10/18 09:01:53;;;;;;;15.25;11.30;;;;;;;8.91;77.61;101346.97;4859835;29;20414;-75
2021/10/18 09:04:25;;;;;;;15.57;11.63;;;;;;;8.89;76.91;101340.97;4859344;29;20976;-75
2021/10/18 09:06:51;;;;;;;15.50;10.90;;;;;;;8.86;77.22;101336.78;4857986;29;20419;-75
2021/10/18 09:09:19;;;;;;;13.80;11.35;;;;;;;8.88;77.04;101344.69;4859428;29;20469;-75
2021/10/18 09:11:47;;;;;;;16.52;12.57;;;;;;;8.93;76.90;101338.63;4859595;29;20909;-75
2021/10/18 09:14:13;;;;;;;14.23;11.32;;;;;;;8.97;76.71;101345.28;4859014;29;20521;-75
2021/10/18 09:16:42;;;;;;;13.38;10.20;;;;;;;9.04;76.62;101348.81;4859110;29;20418;-75
2021/10/18 09:19:12;;;;;;;14.30;11.30;;;;;;;9.16;76.62;101345.22;4859542;29;20515;-75
2021/10/18 09:21:46;;;;;;;15.77;11.18;;;;;;;9.23;76.00;101348.72;4857092;29;20426;-75
2021/10/18 09:24:14;;;;;;;14.88;11.45;;;;;;;9.31;75.38;101347.66;4858978;29;20416;-75
2021/10/18 09:26:41;;;;;;;14.38;11.75;;;;;;;9.39;75.36;101350.94;4859305;29;20425;-75
2021/10/18 09:29:10;;;;;;;14.13;11.38;;;;;;;9.54;75.86;101355.25;4859335;29;20515;-75
2021/10/18 09:31:37;;;;;;;13.05;11.00;;;;;;;9.64;75.71;101355.63;4859295;29;20418;-75
2021/10/18 09:34:07;;;;;;;16.45;12.32;;;;;;;9.77;75.06;101350.13;4858247;29;20430;-75
2021/10/18 09:36:34;;;;;;;16.20;11.82;;;;;;;9.91;74.73;101338.16;4842530;29;20414;-75
2021/10/18 09:39:24;;;;;;;14.25;12.60;;;;;;;9.94;74.35;101348.56;4855648;29;20410;-75
2021/10/18 09:42:00;;;;;;;14.80;10.75;;;;;;;9.98;73.39;101347.03;4858722;29;20426;-75
2021/10/18 10:53:00;;;;;;;13.77;12.25;;;;;;;11.09;70.43;101345.22;4786784;30;20912;-76
2021/10/18 10:55:32;;;;;;;13.90;11.90;;;;;;;11.11;71.00;101340.38;4845905;29;20428;-76
2021/10/18 10:58:00;;;;;;;19.08;13.23;;;;;;;11.05;71.15;101338.56;4860187;29;20430;-75
2021/10/18 11:00:36;;;;;;;16.73;13.02;;;;;;;10.97;71.31;101332.59;4845293;29;20454;-75
2021/10/18 11:03:20;;;;;;;16.48;13.20;;;;;;;10.96;71.79;101328.25;4844960;29;20418;-75
2021/10/18 11:06:03;;;;;;;17.52;13.02;;;;;;;10.98;71.54;101326.97;4860098;29;20596;-75
2021/10/18 11:08:36;;;;;;;14.13;12.00;;;;;;;11.08;71.08;101334.56;4858820;29;20500;-75
2021/10/18 11:11:08;;;;;;;14.63;12.40;;;;;;;11.17;71.10;101335.91;4857607;29;20513;-76
2021/10/18 11:13:46;;;;;;;14.23;11.90;;;;;;;11.28;71.11;101338.72;4854675;29;20449;-75
2021/10/18 11:16:14;;;;;;;14.50;12.43;;;;;;;11.40;70.85;101330.59;4844868;29;20944;-76
2021/10/18 11:18:40;;;;;;;19.70;13.67;;;;;;;11.42;70.16;101332.06;4858320;29;20547;-75
2021/10/18 11:21:12;;;;;;;16.90;13.07;;;;;;;11.50;70.28;101336.31;4859049;29;20429;-75
2021/10/18 11:23:56;;;;;;;16.60;12.48;;;;;;;11.49;70.47;101326.53;4856551;29;20422;-76
2021/10/18 11:26:21;;;;;;;16.73;14.05;;;;;;;11.56;70.84;101312.88;4859107;29;20462;-76
2021/10/18 11:28:51;;;;;;;14.37;12.63;;;;;;;11.73;70.48;101312.00;4860663;29;20490;-75
2021/10/18 11:31:16;;;;;;;16.27;13.03;;;;;;;11.66;69.59;101310.41;4859511;29;20461;-75
2021/10/18 11:33:58;;;;;;;15.80;12.80;;;;;;;11.66;70.01;101302.25;4843530;29;21005;-75
2021/10/18 11:36:24;;;;;;;14.68;13.10;;;;;;;11.54;70.84;101298.69;4842147;29;20926;-75
2021/10/18 11:38:49;;;;;;;14.95;12.90;;;;;;;11.49;70.50;101306.72;4843658;29;20411;-76
2021/10/18 11:41:14;;;;;;;15.37;12.60;;;;;;;11.44;71.18;101301.94;4860909;29;20501;-75
2021/10/18 11:43:47;;;;;;;18.17;13.30;;;;;;;11.44;71.25;101291.94;4858230;29;20785;-75
2021/10/18 11:46:12;;;;;;;14.50;12.05;;;;;;;11.51;71.48;101288.28;4859522;29;20434;-75
2021/10/18 11:48:38;;;;;;;15.63;13.93;;;;;;;11.58;71.19;101284.44;4860885;29;20411;-74
2021/10/18 11:51:03;;;;;;;17.07;14.20;;;;;;;11.50;71.05;101281.19;4861173;29;20414;-74
2021/10/18 11:53:34;;;;;;;16.03;13.27;;;;;;;11.43;71.33;101281.28;4860256;29;20786;-75
2021/10/18 11:56:02;;;;;;;17.30;14.05;;;;;;;11.31;71.47;101275.00;4860369;29;20414;-75
2021/10/18 11:58:33;;;;;;;16.88;13.73;;;;;;;11.20;72.10;101273.88;4859099;29;20501;-74
2021/10/18 12:01:03;;;;;;;17.40;13.35;;;;;;;11.18;72.29;101273.28;4860646;29;20950;-74
2021/10/18 12:03:31;;;;;;;17.15;13.38;;;;;;;11.20;72.75;101270.34;4859580;29;20429;-74
2021/10/18 12:06:00;;;;;;;16.55;13.38;;;;;;;11.27;72.43;101265.66;4860676;29;20828;-75
2021/10/18 12:08:29;;;;;;;15.13;13.52;;;;;;;11.30;72.27;101257.06;4858596;29;20419;-75
2021/10/18 12:10:55;;;;;;;20.75;13.35;;;;;;;11.30;72.72;101252.47;4856505;29;20521;-75
2021/10/18 12:13:25;;;;;;;18.88;13.32;;;;;;;11.42;72.88;101255.22;4855797;29;20926;-75
2021/10/18 12:16:06;;;;;;;19.15;13.43;;;;;;;11.52;72.89;101271.78;4856515;29;20775;-75
2021/10/18 12:18:34;;;;;;;18.95;13.40;;;;;;;11.58;71.99;101256.44;4854273;29;20406;-75
2021/10/18 12:21:06;;;;;;;14.32;12.73;;;;;;;11.66;71.87;101256.09;4861621;29;20424;-74
2021/10/18 12:23:36;;;;;;;15.45;13.43;;;;;;;11.69;72.11;101258.38;4850824;29;20779;-74
2021/10/18 12:26:15;;;;;;;16.05;12.63;;;;;;;11.76;71.72;101249.06;4860275;29;20502;-74
2021/10/18 12:28:54;;;;;;;16.92;13.75;;;;;;;11.69;71.25;101248.31;4858812;29;20778;-74